Time;durP1;ratioP1;P1;durP2;ratioP2;P2;SDS_P1;SDS_P2;PMS_P1;PMS_P2;Temp;Humidity;BMP_temperature;BMP_pressure;BME280_temperature;BME280_humidity;BME280_pressure;Samples;Min_cycle;Max_cycle;Signal;HPM_P1;HPM_P2
2022/08/15 00:02:21;;;;;;;3.6;3.3;;;;;;;20.08;63.97363;929.9689;;;;
2022/08/15 00:04:46;;;;;;;3.6;3.3;;;;;;;19.91;64.50781;929.9763;;;;
2022/08/15 00:07:14;;;;;;;5;3.5;;;;;;;19.92;65.19824;929.9944;;;;
2022/08/15 00:09:39;;;;;;;4;3.4;;;;;;;19.98;65.80176;930.0173;;;;
2022/08/15 00:12:05;;;;;;;4.1;3.7;;;;;;;19.92;66.31836;929.9953;;;;
2022/08/15 00:14:30;;;;;;;3.9;3.3;;;;;;;19.72;66.31152;930.0125;;;;
2022/08/15 00:16:55;;;;;;;4.2;3.3;;;;;;;19.7;66.79785;930.0142;;;;
2022/08/15 00:19:22;;;;;;;3.7;3.4;;;;;;;19.74;67.39941;929.9494;;;;
2022/08/15 00:21:46;;;;;;;5.9;3.8;;;;;;;19.8;68.50488;929.9931;;;;
2022/08/15 00:24:13;;;;;;;4.8;3.9;;;;;;;19.8;68.80664;929.9636;;;;
2022/08/15 00:26:38;;;;;;;3.7;3.4;;;;;;;19.84;68.77832;929.8538;;;;
2022/08/15 00:29:06;;;;;;;3.9;3.6;;;;;;;19.83;68.61426;929.9615;;;;
2022/08/15 00:31:32;;;;;;;4.7;4.1;;;;;;;19.83;69.5459;929.9675;;;;
2022/08/15 00:33:56;;;;;;;5.2;3.4;;;;;;;19.85;69.59668;929.8979;;;;
2022/08/15 00:36:21;;;;;;;4.3;3.8;;;;;;;19.8;69.64648;929.7947;;;;
2022/08/15 00:38:47;;;;;;;6.2;3.7;;;;;;;19.6;68.9043;929.866;;;;
2022/08/15 00:43:37;;;;;;;8.5;3.8;;;;;;;19.72;67.75781;929.8354;;;;
2022/08/15 00:46:03;;;;;;;5.2;3.5;;;;;;;19.68;67.14453;929.8002;;;;
2022/08/15 00:49:04;;;;;;;5;3.5;;;;;;;19.69;68.66211;929.8053;;;;
2022/08/15 00:51:32;;;;;;;3.7;3.4;;;;;;;19.78;68.30273;929.8712;;;;
2022/08/15 00:53:57;;;;;;;4.2;3.4;;;;;;;19.81;68.25977;929.8678;;;;
2022/08/15 00:56:23;;;;;;;4.3;3.7;;;;;;;19.78;69.375;929.8206;;;;
2022/08/15 00:58:48;;;;;;;4.3;3.4;;;;;;;19.76;68.54297;929.8431;;;;
2022/08/15 01:01:14;;;;;;;4.4;3.8;;;;;;;19.69;69.17578;929.877;;;;
2022/08/15 01:03:39;;;;;;;4.3;3.9;;;;;;;19.71;69.44531;929.8675;;;;
2022/08/15 01:06:04;;;;;;;4.1;3.7;;;;;;;19.69;70.18945;929.8295;;;;
2022/08/15 01:08:29;;;;;;;4.2;3.8;;;;;;;19.74;70.1377;929.8656;;;;
2022/08/15 01:14:32;;;;;;;4.6;4.1;;;;;;;19.65;71.52441;929.8981;;;;
2022/08/15 01:16:57;;;;;;;4.6;4.2;;;;;;;19.66;70.83594;929.8697;;;;
2022/08/15 01:19:23;;;;;;;4.3;3.9;;;;;;;19.66;69.93848;929.8762;;;;
2022/08/15 01:21:48;;;;;;;5;4.2;;;;;;;19.65;70.3584;929.9112;;;;
2022/08/15 01:24:17;;;;;;;4.5;3.8;;;;;;;19.64;70.87988;929.9213;;;;
2022/08/15 01:26:43;;;;;;;5;3.9;;;;;;;19.57;70.8584;929.9517;;;;
2022/08/15 01:29:08;;;;;;;4;3.6;;;;;;;19.53;71.28223;929.9783;;;;
2022/08/15 01:31:34;;;;;;;5.3;3.5;;;;;;;19.5;71.5459;930.0591;;;;
2022/08/15 01:34:00;;;;;;;4.5;4;;;;;;;19.56;70.61035;930.0541;;;;
2022/08/15 01:36:26;;;;;;;5.6;3.7;;;;;;;19.52;69.20703;930.068;;;;
2022/08/15 01:39:09;;;;;;;3.9;3.6;;;;;;;19.53;69.05566;930.0468;;;;
2022/08/15 01:41:36;;;;;;;5.8;4.3;;;;;;;19.44;70.9541;930.075;;;;
2022/08/15 01:44:04;;;;;;;4.2;3.9;;;;;;;19.49;71.10156;930.0821;;;;
2022/08/15 01:46:35;;;;;;;4.6;4.1;;;;;;;19.38;72.24902;930.09;;;;
2022/08/15 01:49:01;;;;;;;4.7;4.2;;;;;;;19.42;71.45117;930.058;;;;
2022/08/15 01:51:26;;;;;;;4.2;3.8;;;;;;;19.48;72.43848;930.0432;;;;
2022/08/15 01:53:54;;;;;;;5.1;4.3;;;;;;;19.53;72.65723;930.0598;;;;
2022/08/15 01:56:20;;;;;;;5.7;4;;;;;;;19.54;73.21973;930.0942;;;;
2022/08/15 01:58:45;;;;;;;4.5;3.8;;;;;;;19.53;73.99805;930.0765;;;;
2022/08/15 02:01:12;;;;;;;4.6;4.2;;;;;;;19.49;74.02637;930.1225;;;;
2022/08/15 02:03:38;;;;;;;4.6;4;;;;;;;19.41;74.39746;930.11;;;;
2022/08/15 02:06:05;;;;;;;6.7;4.1;;;;;;;19.35;73.59473;930.1462;;;;
2022/08/15 02:08:30;;;;;;;6.6;4.3;;;;;;;19.34;74.375;930.1521;;;;
2022/08/15 02:10:58;;;;;;;4.5;4.1;;;;;;;19.22;75.34375;930.1418;;;;
2022/08/15 02:13:24;;;;;;;4.7;4.3;;;;;;;19.22;75.34375;930.2058;;;;
2022/08/15 02:15:49;;;;;;;4.6;4.2;;;;;;;19.22;75.22754;930.2178;;;;
2022/08/15 02:18:15;;;;;;;4.3;3.9;;;;;;;19.19;74.7334;930.2703;;;;
2022/08/15 02:20:40;;;;;;;4.9;4.1;;;;;;;19.18;75.61719;930.2723;;;;
2022/08/15 02:23:05;;;;;;;5.7;4.2;;;;;;;19.19;75.43262;930.2219;;;;
2022/08/15 02:25:30;;;;;;;5.5;4.5;;;;;;;19.12;76.36328;930.2779;;;;
2022/08/15 02:27:56;;;;;;;5.2;4.4;;;;;;;19.17;76.28906;930.2429;;;;
2022/08/15 02:31:40;;;;;;;5.2;4.7;;;;;;;19.24;76.40723;930.2601;;;;
2022/08/15 02:34:25;;;;;;;5;4.5;;;;;;;19.2;76.95996;930.3297;;;;
2022/08/15 02:36:50;;;;;;;5.6;4.5;;;;;;;19.19;76.70215;930.368;;;;
2022/08/15 02:39:15;;;;;;;6.2;4.5;;;;;;;19.17;76.10352;930.3383;;;;
2022/08/15 02:41:40;;;;;;;6;4.8;;;;;;;19.14;76.00586;930.3939;;;;
2022/08/15 02:44:05;;;;;;;5.6;5;;;;;;;19.09;77.2666;930.3733;;;;
2022/08/15 02:46:37;;;;;;;7.3;5;;;;;;;19.07;78.46094;930.3959;;;;
2022/08/15 02:49:11;;;;;;;5.1;4.5;;;;;;;18.98;78.92285;930.3761;;;;
2022/08/15 02:51:29;;;;;;;5.7;4.9;;;;;;;18.91;78.31641;930.3505;;;;
2022/08/15 02:53:56;;;;;;;5.8;4.8;;;;;;;18.87;77.92578;930.2994;;;;
2022/08/15 02:56:21;;;;;;;6;4.9;;;;;;;18.92;77.93457;930.3184;;;;
2022/08/15 02:58:51;;;;;;;5.5;5;;;;;;;18.88;78.625;930.312;;;;
2022/08/15 03:01:22;;;;;;;5.1;4.6;;;;;;;18.87;78.12305;930.2751;;;;
2022/08/15 03:03:47;;;;;;;5.9;4.7;;;;;;;18.87;77.56445;930.3156;;;;
2022/08/15 03:06:16;;;;;;;5.4;4.6;;;;;;;18.78;78.16699;930.2731;;;;
2022/08/15 03:08:41;;;;;;;5.3;4.8;;;;;;;18.84;77.9668;930.3125;;;;
2022/08/15 03:11:08;;;;;;;5.9;5;;;;;;;18.84;78.2002;930.2632;;;;
2022/08/15 03:13:35;;;;;;;5.2;4.7;;;;;;;18.83;78.00195;930.3094;;;;
2022/08/15 03:16:05;;;;;;;6.5;5;;;;;;;18.88;77.57813;930.2717;;;;
2022/08/15 03:18:33;;;;;;;6.7;4.9;;;;;;;18.87;78.05371;930.317;;;;
2022/08/15 03:20:59;;;;;;;5.7;4.8;;;;;;;18.94;77.87988;930.3056;;;;
2022/08/15 03:23:48;;;;;;;5.6;5;;;;;;;18.97;77.13965;930.2983;;;;
2022/08/15 03:26:13;;;;;;;5.6;5;;;;;;;18.9;77.66406;930.3427;;;;
2022/08/15 03:28:39;;;;;;;9.4;5.3;;;;;;;18.9;78.02344;930.329;;;;
2022/08/15 03:31:04;;;;;;;8.3;5;;;;;;;18.96;78.39746;930.3275;;;;
2022/08/15 03:33:31;;;;;;;7.3;4.8;;;;;;;18.97;79.04883;930.3071;;;;
2022/08/15 03:36:30;;;;;;;5;4.5;;;;;;;18.99;79.28516;930.3506;;;;
2022/08/15 03:39:01;;;;;;;7.2;4.9;;;;;;;19;79.33496;930.3777;;;;
2022/08/15 03:42:25;;;;;;;5.4;4.9;;;;;;;19.01;78.88281;930.2847;;;;
2022/08/15 03:44:50;;;;;;;6.4;4.9;;;;;;;19;77.62207;930.3053;;;;
2022/08/15 03:47:21;;;;;;;5;4.5;;;;;;;18.99;77.22656;930.3563;;;;
2022/08/15 03:53:14;;;;;;;5.9;5;;;;;;;18.99;77.77148;930.3588;;;;
2022/08/15 03:55:43;;;;;;;6;5.4;;;;;;;18.95;77.78809;930.3917;;;;
2022/08/15 03:58:11;;;;;;;5.7;5.1;;;;;;;18.99;78.22559;930.4041;;;;
2022/08/15 04:02:35;;;;;;;7.8;5.2;;;;;;;19.02;78.7793;930.4699;;;;
2022/08/15 04:05:00;;;;;;;6.6;5.2;;;;;;;18.98;78.36523;930.4583;;;;
2022/08/15 04:07:25;;;;;;;6.7;5.5;;;;;;;19.04;78.13086;930.4632;;;;
2022/08/15 04:09:56;;;;;;;5.8;5.2;;;;;;;19.07;77.75098;930.4105;;;;
2022/08/15 04:12:54;;;;;;;7.3;4.9;;;;;;;19.1;77.80273;930.44;;;;
2022/08/15 04:15:28;;;;;;;6.6;5.5;;;;;;;19.11;78.29297;930.4526;;;;
2022/08/15 04:17:53;;;;;;;5.7;5;;;;;;;19.07;77.61133;930.4217;;;;
2022/08/15 04:20:24;;;;;;;5.8;5.2;;;;;;;18.98;78.16602;930.4238;;;;
2022/08/15 04:22:50;;;;;;;5.6;5.1;;;;;;;18.95;78.62695;930.4941;;;;
2022/08/15 04:25:18;;;;;;;7.1;5.4;;;;;;;18.95;78.68457;930.508;;;;
2022/08/15 04:27:43;;;;;;;8.3;5.4;;;;;;;18.98;78.42188;930.5698;;;;
2022/08/15 04:30:10;;;;;;;6.1;5;;;;;;;19;77.91406;930.5995;;;;
2022/08/15 04:32:35;;;;;;;6.6;5.3;;;;;;;19.04;77.83984;930.5234;;;;
2022/08/15 04:35:03;;;;;;;5.5;5;;;;;;;19.07;77.63477;930.5483;;;;
2022/08/15 04:37:28;;;;;;;5.7;5.1;;;;;;;19.11;76.8623;930.5889;;;;
2022/08/15 04:39:53;;;;;;;5.8;5.2;;;;;;;19.06;77.82129;930.5808;;;;
2022/08/15 04:42:24;;;;;;;6.3;5.1;;;;;;;19.15;77.24121;930.4913;;;;
2022/08/15 04:44:48;;;;;;;6.2;5.2;;;;;;;19.12;77.86523;930.4698;;;;
2022/08/15 04:47:14;;;;;;;6.3;5.2;;;;;;;19.13;78.61426;930.5041;;;;
2022/08/15 04:49:40;;;;;;;5.9;5.3;;;;;;;19.15;77.49707;930.5026;;;;
2022/08/15 04:52:06;;;;;;;7;5.4;;;;;;;19.23;77.26563;930.5269;;;;
2022/08/15 04:54:31;;;;;;;6.7;5;;;;;;;19.26;77.54102;930.5247;;;;
2022/08/15 04:56:59;;;;;;;5.4;4.9;;;;;;;19.2;77.50586;930.5455;;;;
2022/08/15 04:59:23;;;;;;;6.2;4.9;;;;;;;19.22;77.32422;930.5222;;;;
2022/08/15 05:01:49;;;;;;;5.5;5;;;;;;;19.32;76.21094;930.5535;;;;
2022/08/15 05:04:15;;;;;;;5.3;4.8;;;;;;;19.41;76.27539;930.5313;;;;
2022/08/15 05:06:42;;;;;;;6;5.2;;;;;;;19.55;75.66895;930.5436;;;;
2022/08/15 05:09:07;;;;;;;7.3;5.3;;;;;;;19.63;74.3291;930.572;;;;
2022/08/15 05:11:37;;;;;;;4.9;4.3;;;;;;;19.53;73.45117;930.6071;;;;
2022/08/15 05:14:02;;;;;;;5.7;4.5;;;;;;;19.4;74.2207;930.6473;;;;
2022/08/15 05:16:32;;;;;;;4.7;4.2;;;;;;;19.49;74.22461;930.6024;;;;
2022/08/15 05:18:56;;;;;;;5.2;4.4;;;;;;;19.53;74.21875;930.5756;;;;
2022/08/15 05:21:23;;;;;;;5;4.4;;;;;;;19.57;74.29688;930.6013;;;;
2022/08/15 05:23:48;;;;;;;5.7;4.9;;;;;;;19.4;74.75684;930.6167;;;;
2022/08/15 05:26:16;;;;;;;7.3;4.5;;;;;;;19.34;75.93457;930.5486;;;;
2022/08/15 05:28:45;;;;;;;5.4;4.7;;;;;;;19.37;76.20898;930.6232;;;;
2022/08/15 05:31:50;;;;;;;5.3;4.7;;;;;;;19.4;76.3418;930.5769;;;;
2022/08/15 05:34:21;;;;;;;5.2;4.7;;;;;;;19.43;75.7168;930.6143;;;;
2022/08/15 05:36:51;;;;;;;5.4;4.4;;;;;;;19.52;74.87207;930.5961;;;;
2022/08/15 05:39:16;;;;;;;7.4;4.7;;;;;;;19.6;74.96582;930.5767;;;;
2022/08/15 05:41:42;;;;;;;6.7;4.2;;;;;;;19.53;74.39355;930.5934;;;;
2022/08/15 05:44:07;;;;;;;5.5;4.5;;;;;;;19.53;74.44238;930.5764;;;;
2022/08/15 05:46:32;;;;;;;5.8;4.4;;;;;;;19.52;74.44043;930.601;;;;
2022/08/15 05:48:57;;;;;;;6.6;4.3;;;;;;;19.7;74.57422;930.5837;;;;
2022/08/15 05:51:23;;;;;;;4.9;4.4;;;;;;;19.81;74.55762;930.6289;;;;
2022/08/15 05:53:51;;;;;;;5.7;4.4;;;;;;;19.95;74.2207;930.6509;;;;
2022/08/15 05:56:18;;;;;;;5.2;4.1;;;;;;;19.98;72.74316;930.6595;;;;
2022/08/15 05:58:43;;;;;;;4.7;4.2;;;;;;;19.98;72.06641;930.6127;;;;
2022/08/15 06:01:13;;;;;;;4.7;4.3;;;;;;;20.03;72.47266;930.6256;;;;
2022/08/15 06:03:43;;;;;;;4.9;4.2;;;;;;;20;72.05762;930.5693;;;;
2022/08/15 06:06:09;;;;;;;4.9;4.4;;;;;;;20.05;71.93945;930.5859;;;;
2022/08/15 06:08:34;;;;;;;5;4.5;;;;;;;20.13;73.25879;930.5699;;;;
2022/08/15 06:11:02;;;;;;;5.3;4.8;;;;;;;20.22;73.13379;930.6151;;;;
2022/08/15 06:13:28;;;;;;;5.8;4.7;;;;;;;20.21;71.97656;930.6533;;;;
2022/08/15 06:16:01;;;;;;;5.5;4.3;;;;;;;20.3;72.33008;930.6588;;;;
2022/08/15 06:18:26;;;;;;;5;4.3;;;;;;;20.41;72.62598;930.6905;;;;
2022/08/15 06:20:51;;;;;;;5.4;4.1;;;;;;;20.37;70.79883;930.7547;;;;
2022/08/15 06:23:16;;;;;;;5.6;4;;;;;;;20.41;70.45605;930.7065;;;;
2022/08/15 06:25:41;;;;;;;4.6;4.2;;;;;;;20.42;70.60938;930.6802;;;;
2022/08/15 06:28:09;;;;;;;5.1;4.6;;;;;;;20.45;69.92383;930.6501;;;;
2022/08/15 06:30:34;;;;;;;4.6;4.2;;;;;;;20.51;71.60449;930.7115;;;;
2022/08/15 06:33:02;;;;;;;4.7;4.1;;;;;;;20.48;72.50977;930.6733;;;;
2022/08/15 06:35:24;;;;;;;5.8;4.4;;;;;;;20.37;72.69043;930.665;;;;
2022/08/15 06:37:55;;;;;;;5;4.5;;;;;;;20.41;73.28027;930.6735;;;;
2022/08/15 06:40:23;;;;;;;5.1;4.6;;;;;;;20.43;72.62109;930.6548;;;;
2022/08/15 06:42:48;;;;;;;7.2;4.7;;;;;;;20.55;72.89551;930.6138;;;;
2022/08/15 06:45:16;;;;;;;4.6;4.2;;;;;;;20.6;72.14355;930.645;;;;
2022/08/15 06:47:41;;;;;;;5.2;4.7;;;;;;;20.62;73.15234;930.6367;;;;
2022/08/15 06:50:06;;;;;;;5.3;4.8;;;;;;;20.73;72.1543;930.6705;;;;
2022/08/15 06:52:35;;;;;;;5.2;4.7;;;;;;;20.72;71.9541;930.6513;;;;
2022/08/15 06:55:00;;;;;;;5.2;4.7;;;;;;;20.71;72.08105;930.6406;;;;
2022/08/15 06:57:27;;;;;;;5.2;4.4;;;;;;;20.75;71.39746;930.6301;;;;
2022/08/15 06:59:53;;;;;;;4.9;4.3;;;;;;;20.77;71.0957;930.6373;;;;
2022/08/15 07:02:18;;;;;;;5;4.6;;;;;;;20.79;70.83301;930.6111;;;;
2022/08/15 07:07:26;;;;;;;4.9;4.4;;;;;;;20.8;71.35938;930.6139;;;;
2022/08/15 07:09:51;;;;;;;4.9;4.5;;;;;;;20.84;72.40527;930.6097;;;;
2022/08/15 07:12:17;;;;;;;5.5;4.4;;;;;;;20.85;73.43555;930.618;;;;
2022/08/15 07:14:42;;;;;;;5.2;4.4;;;;;;;20.89;74.08594;930.685;;;;
2022/08/15 07:17:07;;;;;;;5.1;4.6;;;;;;;20.87;75.25195;930.6972;;;;
2022/08/15 07:19:32;;;;;;;5.2;4.7;;;;;;;20.87;74.97168;930.7693;;;;
2022/08/15 07:21:57;;;;;;;5.1;4.4;;;;;;;20.92;73.42383;930.7827;;;;
2022/08/15 07:24:22;;;;;;;5.6;4.8;;;;;;;20.96;71.53613;930.7162;;;;
2022/08/15 07:26:47;;;;;;;5.9;4.9;;;;;;;21;71.8125;930.7808;;;;
2022/08/15 07:29:13;;;;;;;5.3;4.6;;;;;;;21.07;70.30371;930.783;;;;
2022/08/15 07:31:39;;;;;;;5.1;4.6;;;;;;;21.1;72.46094;930.8527;;;;
2022/08/15 07:34:04;;;;;;;5.6;5.1;;;;;;;21.16;71.11328;930.8389;;;;
2022/08/15 07:36:32;;;;;;;5.2;4.7;;;;;;;21.09;72.82227;930.7867;;;;
2022/08/15 07:38:57;;;;;;;5.2;4.7;;;;;;;21.09;71.88477;930.8203;;;;
2022/08/15 07:41:23;;;;;;;5.3;4.8;;;;;;;21.19;70.33398;930.8101;;;;
2022/08/15 07:43:47;;;;;;;5.3;4.5;;;;;;;21.28;70.9209;930.8531;;;;
2022/08/15 07:46:16;;;;;;;5.2;4.3;;;;;;;21.4;69.54688;930.842;;;;
2022/08/15 07:48:41;;;;;;;6.8;4.7;;;;;;;21.42;69.86719;930.8694;;;;
2022/08/15 07:51:10;;;;;;;5;4.5;;;;;;;21.41;70.3916;930.9113;;;;
2022/08/15 07:53:36;;;;;;;5.3;4.5;;;;;;;21.45;70.07129;930.9203;;;;
2022/08/15 07:56:04;;;;;;;7;4.8;;;;;;;21.41;72.06543;930.9404;;;;
2022/08/15 07:58:27;;;;;;;4.3;3.9;;;;;;;21.49;68.28516;930.9341;;;;
2022/08/15 08:00:55;;;;;;;5.8;3.9;;;;;;;21.34;65.84082;931.009;;;;
2022/08/15 08:03:20;;;;;;;5.6;3.9;;;;;;;21.34;67.13867;931.0238;;;;
2022/08/15 08:05:44;;;;;;;5.6;4.6;;;;;;;21.45;67.41211;931.0525;;;;
2022/08/15 08:08:09;;;;;;;5.1;4;;;;;;;21.5;67.93652;931.0427;;;;
2022/08/15 08:10:39;;;;;;;4.7;4.2;;;;;;;21.6;72.69336;931.0142;;;;
2022/08/15 08:13:03;;;;;;;6.5;4.6;;;;;;;21.74;71.9209;931.0714;;;;
2022/08/15 08:15:33;;;;;;;4.9;4.4;;;;;;;21.78;72.78125;931.1214;;;;
2022/08/15 08:17:58;;;;;;;6.2;4.4;;;;;;;21.78;70.82617;931.046;;;;
2022/08/15 08:20:23;;;;;;;4.8;4.3;;;;;;;21.68;70.78711;931.1047;;;;
2022/08/15 08:22:49;;;;;;;4.1;3.6;;;;;;;21.38;70.69141;931.1257;;;;
2022/08/15 08:25:13;;;;;;;4.3;3.6;;;;;;;21.14;70.52344;931.0771;;;;
2022/08/15 08:27:38;;;;;;;3.8;3;;;;;;;21.15;69.75488;931.079;;;;
2022/08/15 08:30:04;;;;;;;3.5;3.2;;;;;;;21.2;69.72852;931.0565;;;;
2022/08/15 08:32:45;;;;;;;3.1;2.9;;;;;;;21.21;70.03223;931.0734;;;;
2022/08/15 08:35:12;;;;;;;3.3;3;;;;;;;21.42;70.53516;931.0541;;;;
2022/08/15 08:37:42;;;;;;;3;2.5;;;;;;;21.48;71.93652;931.116;;;;
2022/08/15 08:42:32;;;;;;;2.9;2.6;;;;;;;21.15;69.95215;931.1456;;;;
2022/08/15 08:44:58;;;;;;;4.3;2.8;;;;;;;21.11;71.53906;931.1583;;;;
2022/08/15 08:47:23;;;;;;;4;2.8;;;;;;;20.99;71.91406;931.1124;;;;
2022/08/15 08:49:49;;;;;;;3;2.8;;;;;;;21.15;71.32227;931.1689;;;;
2022/08/15 08:52:14;;;;;;;3.1;2.6;;;;;;;21.17;70.50586;931.1906;;;;
2022/08/15 08:54:39;;;;;;;3;2.7;;;;;;;21.34;70.86133;931.1863;;;;
2022/08/15 08:57:04;;;;;;;3.2;2.9;;;;;;;21.47;71.51367;931.1519;;;;
2022/08/15 08:59:31;;;;;;;3.8;2.7;;;;;;;21.22;70.29102;931.1053;;;;
2022/08/15 09:01:54;;;;;;;2.5;2.3;;;;;;;21.25;71.9248;931.1326;;;;
2022/08/15 09:04:31;;;;;;;4.8;3;;;;;;;21.06;70.46387;931.159;;;;
2022/08/15 09:06:53;;;;;;;2.7;2.5;;;;;;;21.15;70.6543;931.1683;;;;
2022/08/15 09:09:18;;;;;;;2.6;2.4;;;;;;;21.21;70.41992;931.2067;;;;
2022/08/15 09:11:43;;;;;;;3.2;2.6;;;;;;;21.29;71.33203;931.1855;;;;
2022/08/15 09:14:08;;;;;;;3.4;2.7;;;;;;;21.37;70.58594;931.1785;;;;
2022/08/15 09:16:33;;;;;;;3.5;2.7;;;;;;;21.42;70.20605;931.1401;;;;
2022/08/15 09:19:00;;;;;;;3.5;2.4;;;;;;;21.36;69.81055;931.1613;;;;
2022/08/15 09:21:25;;;;;;;3.2;2.7;;;;;;;21.34;69.20996;931.1728;;;;
2022/08/15 09:23:50;;;;;;;2.9;2.5;;;;;;;21.5;71.83594;931.1301;;;;
2022/08/15 09:26:18;;;;;;;2.8;2.5;;;;;;;21.63;69.67676;931.0927;;;;
2022/08/15 09:28:42;;;;;;;3.7;3.1;;;;;;;21.65;69.51855;931.1295;;;;
2022/08/15 09:31:12;;;;;;;2.5;2.3;;;;;;;21.64;68.47266;931.1753;;;;
2022/08/15 09:33:41;;;;;;;2.8;2.5;;;;;;;21.73;68.25098;931.1262;;;;
2022/08/15 09:36:08;;;;;;;4.6;2.6;;;;;;;21.88;68.7666;931.1164;;;;
2022/08/15 09:38:34;;;;;;;2.4;2.2;;;;;;;21.93;67.94531;931.1155;;;;
2022/08/15 09:41:03;;;;;;;2.5;2.3;;;;;;;22.22;68.58594;931.0828;;;;
2022/08/15 09:43:28;;;;;;;2.5;2.2;;;;;;;22.37;67.56543;931.0772;;;;
2022/08/15 09:45:54;;;;;;;3;2.3;;;;;;;22.5;66.60059;931.0786;;;;
2022/08/15 09:48:37;;;;;;;4;2.5;;;;;;;22.65;65.20215;930.9792;;;;
2022/08/15 09:51:11;;;;;;;2.6;2.4;;;;;;;22.88;65.2832;931.0261;;;;
2022/08/15 09:53:34;;;;;;;3;2.3;;;;;;;23.13;63.09961;931.0195;;;;
2022/08/15 09:55:59;;;;;;;2.8;2.1;;;;;;;23.32;61.11523;930.9946;;;;
2022/08/15 09:58:24;;;;;;;2.3;1.8;;;;;;;23.39;58.62012;931.0026;;;;
2022/08/15 10:00:54;;;;;;;2.3;2.1;;;;;;;23.5;60.17578;930.9688;;;;
2022/08/15 10:03:19;;;;;;;2.9;2.2;;;;;;;23.67;57.58691;931.0076;;;;
2022/08/15 10:05:44;;;;;;;2.3;2.1;;;;;;;23.93;59.0332;931.0014;;;;
2022/08/15 10:08:13;;;;;;;2.6;2.4;;;;;;;24.28;58.01953;930.9428;;;;
2022/08/15 10:10:40;;;;;;;3;2.5;;;;;;;24.11;55.84082;930.9172;;;;
2022/08/15 10:13:07;;;;;;;2.9;2.6;;;;;;;24.31;57.82324;930.8959;;;;
2022/08/15 10:15:40;;;;;;;3.3;2.5;;;;;;;24.4;55.00684;930.8778;;;;
2022/08/15 10:18:00;;;;;;;3.7;2.4;;;;;;;24.77;56.06641;930.8886;;;;
2022/08/15 10:20:26;;;;;;;3;2.5;;;;;;;24.64;55.83789;930.8137;;;;
2022/08/15 10:22:52;;;;;;;2.6;2.4;;;;;;;25.23;54.9541;930.8036;;;;
2022/08/15 10:25:17;;;;;;;3;2.2;;;;;;;25.19;53.19141;930.76;;;;
2022/08/15 10:27:43;;;;;;;3.7;2.6;;;;;;;25.35;51.55664;930.7467;;;;
2022/08/15 10:30:07;;;;;;;3;2.1;;;;;;;25.3;49.92285;930.7054;;;;
2022/08/15 10:32:33;;;;;;;2.7;2.3;;;;;;;25.74;49.12012;930.6939;;;;
2022/08/15 10:35:01;;;;;;;2.6;2.2;;;;;;;26.31;48.42383;930.7271;;;;
2022/08/15 10:37:27;;;;;;;2.7;2.5;;;;;;;26.66;49.9082;930.6401;;;;
2022/08/15 10:39:53;;;;;;;3.1;2.6;;;;;;;26.8;48.36035;930.6642;;;;
2022/08/15 10:42:24;;;;;;;2.9;2.6;;;;;;;27.39;46.78516;930.6165;;;;
2022/08/15 10:44:49;;;;;;;4.5;2.8;;;;;;;27.92;44.4668;930.5628;;;;
2022/08/15 10:47:15;;;;;;;3.8;2.6;;;;;;;28.27;44.49902;930.5245;;;;
2022/08/15 10:49:39;;;;;;;5.2;2.7;;;;;;;28.14;43.78613;930.475;;;;
2022/08/15 10:52:04;;;;;;;3.2;2.8;;;;;;;28.01;44.03613;930.4588;;;;
2022/08/15 10:54:34;;;;;;;3.2;2.6;;;;;;;27.95;44.69434;930.3397;;;;
2022/08/15 10:56:59;;;;;;;3;2.7;;;;;;;28.46;43.42578;930.3641;;;;
2022/08/15 10:59:26;;;;;;;2.9;2.3;;;;;;;27.71;43.51953;930.3945;;;;
2022/08/15 11:01:51;;;;;;;3.3;2.6;;;;;;;27.92;45.28516;930.3815;;;;
2022/08/15 11:04:16;;;;;;;2.8;2.2;;;;;;;28.67;41.5293;930.3003;;;;
2022/08/15 11:06:41;;;;;;;2.7;2.3;;;;;;;28.82;41.31738;930.2831;;;;
2022/08/15 11:09:07;;;;;;;2.8;2.1;;;;;;;28.9;40.95605;930.2885;;;;
2022/08/15 11:11:33;;;;;;;2.3;2.1;;;;;;;28.9;40.48047;930.2406;;;;
2022/08/15 11:14:02;;;;;;;3;2.3;;;;;;;28.89;40.27734;930.2932;;;;
2022/08/15 11:16:27;;;;;;;3.3;2.2;;;;;;;28.42;40.78223;930.2684;;;;
2022/08/15 11:18:52;;;;;;;2.5;1.9;;;;;;;28.23;41.0498;930.2545;;;;
2022/08/15 11:21:22;;;;;;;2.6;2.1;;;;;;;28.27;40.95801;930.2877;;;;
2022/08/15 11:23:53;;;;;;;2.2;2.1;;;;;;;28.16;40.1875;930.1457;;;;
2022/08/15 11:26:22;;;;;;;2.4;2.2;;;;;;;28.23;40.18262;930.1481;;;;
2022/08/15 11:28:48;;;;;;;3.3;2.2;;;;;;;28.42;39.79492;930.1554;;;;
2022/08/15 11:31:15;;;;;;;2.3;2.1;;;;;;;28.49;38.43359;930.1555;;;;
2022/08/15 11:33:43;;;;;;;2.4;1.8;;;;;;;29.03;37.25391;930.114;;;;
2022/08/15 11:36:06;;;;;;;2.2;2;;;;;;;29.75;38.32617;930.0765;;;;
2022/08/15 11:38:37;;;;;;;2.9;2;;;;;;;30.93;34.21777;930.0786;;;;
2022/08/15 11:41:05;;;;;;;2.4;2.2;;;;;;;30.86;36.38867;930.0265;;;;
2022/08/15 11:43:36;;;;;;;2.6;1.9;;;;;;;31.54;34.94727;929.9637;;;;
2022/08/15 11:46:01;;;;;;;2.6;1.6;;;;;;;32.51;31.55371;930.0313;;;;
2022/08/15 11:48:26;;;;;;;2;1.9;;;;;;;33.83;30.75586;930.0017;;;;
2022/08/15 11:50:51;;;;;;;4.3;2.1;;;;;;;33.92;31.9043;929.9897;;;;
2022/08/15 11:53:16;;;;;;;1.8;1.7;;;;;;;34.49;30.81152;929.9135;;;;
2022/08/15 11:55:44;;;;;;;3.3;2.1;;;;;;;35.59;29.59375;929.8635;;;;
2022/08/15 11:58:09;;;;;;;1.9;1.8;;;;;;;34.8;28.34863;929.8514;;;;
2022/08/15 12:00:34;;;;;;;3;2.1;;;;;;;33.97;30.66895;929.856;;;;
2022/08/15 12:02:59;;;;;;;2.9;2.1;;;;;;;32.25;32.69824;929.8053;;;;
2022/08/15 12:05:29;;;;;;;3.1;2.1;;;;;;;30.93;34.89941;929.7891;;;;
2022/08/15 12:07:54;;;;;;;2.2;1.8;;;;;;;30.2;36.19238;929.7703;;;;
2022/08/15 12:10:23;;;;;;;2.3;1.9;;;;;;;29.08;37.53125;929.7072;;;;
2022/08/15 12:12:54;;;;;;;3.6;2.2;;;;;;;28.75;38.03906;929.7122;;;;
2022/08/15 12:15:24;;;;;;;2.2;2;;;;;;;29.07;38.11426;929.6735;;;;
2022/08/15 12:17:51;;;;;;;2.1;1.9;;;;;;;30.14;35.68652;929.6622;;;;
2022/08/15 12:20:17;;;;;;;2.3;1.8;;;;;;;31.24;34.9834;929.5891;;;;
2022/08/15 12:22:45;;;;;;;2.3;1.6;;;;;;;31.79;34.11523;929.5876;;;;
2022/08/15 12:25:11;;;;;;;1.9;1.7;;;;;;;31.79;32.57031;929.6086;;;;
2022/08/15 12:27:37;;;;;;;2.7;1.7;;;;;;;31.21;32.5166;929.5469;;;;
2022/08/15 12:30:01;;;;;;;2.8;1.7;;;;;;;29.94;36.6123;929.5658;;;;
2022/08/15 12:32:27;;;;;;;2.2;1.3;;;;;;;29.77;34.26172;929.5125;;;;
2022/08/15 12:34:53;;;;;;;1.5;1.4;;;;;;;29.66;35.63574;929.4928;;;;
2022/08/15 12:37:18;;;;;;;1.3;1.2;;;;;;;29.71;32.56445;929.4783;;;;
2022/08/15 12:39:45;;;;;;;2.5;1.4;;;;;;;29.2;36.31543;929.4748;;;;
2022/08/15 12:42:10;;;;;;;1.5;1.4;;;;;;;28.36;34.8916;929.3936;;;;
2022/08/15 12:44:37;;;;;;;2.2;1.5;;;;;;;29;35.96484;929.3831;;;;
2022/08/15 12:47:03;;;;;;;1.8;1.3;;;;;;;29.06;34.86328;929.3639;;;;
2022/08/15 12:49:31;;;;;;;2.5;1.5;;;;;;;29.25;33.80566;929.3354;;;;
2022/08/15 12:51:56;;;;;;;1.3;1.2;;;;;;;29.26;34.37793;929.3129;;;;
2022/08/15 12:54:23;;;;;;;1.5;1.4;;;;;;;28.71;37.5127;929.3661;;;;
2022/08/15 12:56:48;;;;;;;1.8;1.7;;;;;;;27.75;37.33789;929.2547;;;;
2022/08/15 12:59:19;;;;;;;1.5;1.4;;;;;;;27.96;38.85156;929.1922;;;;
2022/08/15 13:01:45;;;;;;;2.1;1.7;;;;;;;28.16;37.40723;929.1194;;;;
2022/08/15 13:04:10;;;;;;;1.9;1.5;;;;;;;27.86;40.54004;929.1311;;;;
2022/08/15 13:06:38;;;;;;;2;1.6;;;;;;;27.63;39.11914;929.1165;;;;
2022/08/15 13:09:02;;;;;;;1.6;1.5;;;;;;;27.71;41.37012;929.0705;;;;
2022/08/15 13:11:31;;;;;;;1.5;1.4;;;;;;;27.96;37.97168;929.0872;;;;
2022/08/15 13:17:26;;;;;;;1.9;1.7;;;;;;;27.94;38.29199;929.0064;;;;
2022/08/15 13:24:45;;;;;;;1.6;1.5;;;;;;;27.24;41.46973;928.9424;;;;
2022/08/15 13:32:36;;;;;;;1.7;1.6;;;;;;;26.16;46.83594;928.8979;;;;
2022/08/15 13:35:05;;;;;;;2.1;1.5;;;;;;;25.9;43.00098;928.8797;;;;
2022/08/15 13:37:30;;;;;;;2;1.7;;;;;;;25.69;44.71875;928.8618;;;;
2022/08/15 13:39:57;;;;;;;2.1;1.9;;;;;;;25.77;49.96289;928.9642;;;;
2022/08/15 13:42:22;;;;;;;3.5;1.8;;;;;;;26.11;46.94824;928.8295;;;;
2022/08/15 13:48:15;;;;;;;1.9;1.7;;;;;;;26.82;42.74512;928.793;;;;
2022/08/15 13:50:41;;;;;;;1.9;1.5;;;;;;;27.05;41.7959;928.7846;;;;
2022/08/15 13:53:11;;;;;;;4.2;1.9;;;;;;;27.31;41.09668;928.7952;;;;
2022/08/15 13:55:41;;;;;;;1.4;1.3;;;;;;;27.23;42.78516;928.777;;;;
2022/08/15 13:58:06;;;;;;;2.4;1.6;;;;;;;27.37;42.48926;928.747;;;;
2022/08/15 14:00:31;;;;;;;2.2;2;;;;;;;27.6;40.39941;928.6597;;;;
2022/08/15 14:02:59;;;;;;;2.9;1.7;;;;;;;27.67;39.65723;928.6987;;;;
2022/08/15 14:05:25;;;;;;;2.9;1.7;;;;;;;27.02;43.68945;928.7125;;;;
2022/08/15 14:07:52;;;;;;;1.6;1.5;;;;;;;26.71;46.13477;928.699;;;;
2022/08/15 14:10:18;;;;;;;2;1.8;;;;;;;26.64;44.09082;928.7567;;;;
2022/08/15 14:12:47;;;;;;;2;1.6;;;;;;;26.79;43.95215;928.6918;;;;
2022/08/15 14:15:13;;;;;;;2;1.7;;;;;;;26.27;44.125;928.8066;;;;
2022/08/15 14:17:37;;;;;;;2.2;1.8;;;;;;;26.26;45.6748;928.8077;;;;
2022/08/15 14:20:09;;;;;;;1.8;1.7;;;;;;;26.2;44.47363;928.801;;;;
2022/08/15 14:22:39;;;;;;;2.7;1.8;;;;;;;26.17;45.37012;928.8141;;;;
2022/08/15 14:25:14;;;;;;;2.6;2;;;;;;;26.16;45.02539;928.7756;;;;
2022/08/15 14:27:45;;;;;;;1.8;1.7;;;;;;;26.02;45.30664;928.8279;;;;
2022/08/15 14:30:09;;;;;;;2.6;1.9;;;;;;;25.83;45.65332;928.7978;;;;
2022/08/15 14:32:37;;;;;;;2.5;1.5;;;;;;;25.73;45.47949;928.838;;;;
2022/08/15 14:35:02;;;;;;;2.4;1.6;;;;;;;25.69;45.55664;928.8517;;;;
2022/08/15 14:40:44;;;;;;;3.8;1.9;;;;;;;25.37;45.6543;928.8946;;;;
2022/08/15 14:43:14;;;;;;;1.9;1.7;;;;;;;25.17;46.33105;928.9158;;;;
2022/08/15 14:45:38;;;;;;;3;1.7;;;;;;;24.94;48.57227;929.0267;;;;
2022/08/15 14:48:02;;;;;;;2.4;1.9;;;;;;;24.82;48.65332;929.0957;;;;
2022/08/15 14:50:58;;;;;;;3.3;1.6;;;;;;;24.83;48.31152;929.2012;;;;
2022/08/15 14:53:22;;;;;;;2.3;1.9;;;;;;;24.81;48.60547;929.2582;;;;
2022/08/15 14:55:45;;;;;;;2.6;2;;;;;;;24.73;48.57324;929.3533;;;;
2022/08/15 14:58:10;;;;;;;2;1.8;;;;;;;24.76;49.67285;929.3873;;;;
2022/08/15 15:00:37;;;;;;;4.3;2.1;;;;;;;24.84;54.35352;929.4059;;;;
2022/08/15 15:03:06;;;;;;;6.6;2.7;;;;;;;24.34;57.2373;929.4889;;;;
2022/08/15 15:05:36;;;;;;;6.9;2.9;;;;;;;23.69;60.37598;929.5183;;;;
2022/08/15 15:08:03;;;;;;;5.5;2.6;;;;;;;23.51;59.36523;929.6036;;;;